sensor_id;sensor_type;location;lat;lon;timestamp;temperature;humidity
65692;DHT22;52411;52.716;6.696;2022-11-20T00:01:46;-2.90;99.90
65692;DHT22;52411;52.716;6.696;2022-11-20T00:04:12;-2.90;99.90
65692;DHT22;52411;52.716;6.696;2022-11-20T00:06:37;-3.00;99.90
65692;DHT22;52411;52.716;6.696;2022-11-20T00:09:03;-3.10;99.90
65692;DHT22;52411;52.716;6.696;2022-11-20T00:11:31;-3.20;99.90
65692;DHT22;52411;52.716;6.696;2022-11-20T00:13:58;-3.20;99.90
65692;DHT22;52411;52.716;6.696;2022-11-20T00:16:27;-3.20;99.90
65692;DHT22;52411;52.716;6.696;2022-11-20T00:18:53;-3.20;99.90
65692;DHT22;52411;52.716;6.696;2022-11-20T00:21:25;-3.10;99.90
65692;DHT22;52411;52.716;6.696;2022-11-20T00:23:51;-3.10;99.90
65692;DHT22;52411;52.716;6.696;2022-11-20T00:26:18;-3.20;99.90
65692;DHT22;52411;52.716;6.696;2022-11-20T00:28:49;-3.20;99.90
65692;DHT22;52411;52.716;6.696;2022-11-20T00:31:16;-3.30;99.90
65692;DHT22;52411;52.716;6.696;2022-11-20T00:33:42;-3.20;99.90
65692;DHT22;52411;52.716;6.696;2022-11-20T00:36:14;-3.20;99.90
65692;DHT22;52411;52.716;6.696;2022-11-20T00:38:40;-3.20;99.90
65692;DHT22;52411;52.716;6.696;2022-11-20T00:41:08;-3.20;99.90
65692;DHT22;52411;52.716;6.696;2022-11-20T00:43:35;-3.10;99.90
65692;DHT22;52411;52.716;6.696;2022-11-20T00:46:02;-3.00;99.90
65692;DHT22;52411;52.716;6.696;2022-11-20T00:48:28;-2.90;99.90
65692;DHT22;52411;52.716;6.696;2022-11-20T00:50:54;-2.80;99.90
65692;DHT22;52411;52.716;6.696;2022-11-20T00:53:21;-2.80;99.90
65692;DHT22;52411;52.716;6.696;2022-11-20T00:55:59;-2.70;99.90
65692;DHT22;52411;52.716;6.696;2022-11-20T00:58:29;-2.60;99.90
65692;DHT22;52411;52.716;6.696;2022-11-20T01:01:03;-2.60;99.90
65692;DHT22;52411;52.716;6.696;2022-11-20T01:03:34;-2.60;99.90
65692;DHT22;52411;52.716;6.696;2022-11-20T01:06:11;-2.50;99.90
65692;DHT22;52411;52.716;6.696;2022-11-20T01:08:37;-2.50;99.90
65692;DHT22;52411;52.716;6.696;2022-11-20T01:11:09;-2.40;99.90
65692;DHT22;52411;52.716;6.696;2022-11-20T01:13:35;-2.50;99.90
65692;DHT22;52411;52.716;6.696;2022-11-20T01:16:28;-2.50;99.90
65692;DHT22;52411;52.716;6.696;2022-11-20T01:18:56;-2.50;99.90
65692;DHT22;52411;52.716;6.696;2022-11-20T01:21:25;-2.40;99.90
65692;DHT22;52411;52.716;6.696;2022-11-20T01:23:51;-2.40;99.90
65692;DHT22;52411;52.716;6.696;2022-11-20T01:26:22;-2.30;99.90
65692;DHT22;52411;52.716;6.696;2022-11-20T01:28:48;-2.20;99.90
65692;DHT22;52411;52.716;6.696;2022-11-20T01:31:22;-2.20;99.90
65692;DHT22;52411;52.716;6.696;2022-11-20T01:33:50;-2.20;99.90
65692;DHT22;52411;52.716;6.696;2022-11-20T01:36:18;-2.10;99.90
65692;DHT22;52411;52.716;6.696;2022-11-20T01:38:43;-2.10;99.90
65692;DHT22;52411;52.716;6.696;2022-11-20T01:41:10;-2.20;99.90
65692;DHT22;52411;52.716;6.696;2022-11-20T01:43:36;-2.30;99.90
65692;DHT22;52411;52.716;6.696;2022-11-20T01:46:08;-2.40;99.90
65692;DHT22;52411;52.716;6.696;2022-11-20T01:51:20;-2.40;99.90
65692;DHT22;52411;52.716;6.696;2022-11-20T01:53:47;-2.40;99.90
65692;DHT22;52411;52.716;6.696;2022-11-20T01:56:14;-2.40;99.90
65692;DHT22;52411;52.716;6.696;2022-11-20T01:58:43;-2.30;99.90
65692;DHT22;52411;52.716;6.696;2022-11-20T02:01:11;-2.30;99.90
65692;DHT22;52411;52.716;6.696;2022-11-20T02:03:37;-2.30;99.90
65692;DHT22;52411;52.716;6.696;2022-11-20T02:08:44;-2.20;99.90
65692;DHT22;52411;52.716;6.696;2022-11-20T02:11:10;-2.20;99.90
65692;DHT22;52411;52.716;6.696;2022-11-20T02:13:35;-2.20;99.90
65692;DHT22;52411;52.716;6.696;2022-11-20T02:18:58;-2.10;99.90
65692;DHT22;52411;52.716;6.696;2022-11-20T02:21:30;-2.00;99.90
65692;DHT22;52411;52.716;6.696;2022-11-20T02:26:32;-2.00;99.90
65692;DHT22;52411;52.716;6.696;2022-11-20T02:29:00;-1.90;99.90
65692;DHT22;52411;52.716;6.696;2022-11-20T02:31:26;-1.90;99.90
65692;DHT22;52411;52.716;6.696;2022-11-20T02:33:58;-1.80;99.90
65692;DHT22;52411;52.716;6.696;2022-11-20T02:36:26;-1.70;99.90
65692;DHT22;52411;52.716;6.696;2022-11-20T02:38:52;-1.70;99.90
65692;DHT22;52411;52.716;6.696;2022-11-20T02:41:17;-1.70;99.90
65692;DHT22;52411;52.716;6.696;2022-11-20T02:43:43;-1.70;99.90
65692;DHT22;52411;52.716;6.696;2022-11-20T02:46:09;-1.70;99.90
65692;DHT22;52411;52.716;6.696;2022-11-20T02:48:34;-1.70;99.90
65692;DHT22;52411;52.716;6.696;2022-11-20T02:51:00;-1.70;99.90
65692;DHT22;52411;52.716;6.696;2022-11-20T02:53:26;-1.70;99.90
65692;DHT22;52411;52.716;6.696;2022-11-20T02:55:52;-1.70;99.90
65692;DHT22;52411;52.716;6.696;2022-11-20T02:58:17;-1.70;99.90
65692;DHT22;52411;52.716;6.696;2022-11-20T03:00:43;-1.70;99.90
65692;DHT22;52411;52.716;6.696;2022-11-20T03:03:08;-1.60;99.90
65692;DHT22;52411;52.716;6.696;2022-11-20T03:05:34;-1.60;99.90
65692;DHT22;52411;52.716;6.696;2022-11-20T03:08:00;-1.60;99.90
65692;DHT22;52411;52.716;6.696;2022-11-20T03:10:25;-1.60;99.90
65692;DHT22;52411;52.716;6.696;2022-11-20T03:12:55;-1.60;99.90
65692;DHT22;52411;52.716;6.696;2022-11-20T03:15:24;-1.60;99.90
65692;DHT22;52411;52.716;6.696;2022-11-20T03:17:53;-1.60;99.90
65692;DHT22;52411;52.716;6.696;2022-11-20T03:20:20;-1.60;99.90
65692;DHT22;52411;52.716;6.696;2022-11-20T03:22:45;-1.60;99.90
65692;DHT22;52411;52.716;6.696;2022-11-20T03:25:11;-1.50;99.90
65692;DHT22;52411;52.716;6.696;2022-11-20T03:27:36;-1.50;99.90
65692;DHT22;52411;52.716;6.696;2022-11-20T03:30:02;-1.50;99.90
65692;DHT22;52411;52.716;6.696;2022-11-20T03:32:28;-1.50;99.90
65692;DHT22;52411;52.716;6.696;2022-11-20T03:34:54;-1.50;99.90
65692;DHT22;52411;52.716;6.696;2022-11-20T03:37:19;-1.50;99.90
65692;DHT22;52411;52.716;6.696;2022-11-20T03:39:45;-1.50;99.90
65692;DHT22;52411;52.716;6.696;2022-11-20T03:42:10;-1.50;99.90
65692;DHT22;52411;52.716;6.696;2022-11-20T03:44:56;-1.40;99.90
65692;DHT22;52411;52.716;6.696;2022-11-20T03:47:21;-1.30;99.90
65692;DHT22;52411;52.716;6.696;2022-11-20T03:49:47;-1.30;99.90
65692;DHT22;52411;52.716;6.696;2022-11-20T03:52:13;-1.30;99.90
65692;DHT22;52411;52.716;6.696;2022-11-20T03:54:38;-1.30;99.90
65692;DHT22;52411;52.716;6.696;2022-11-20T03:57:04;-1.20;99.90
65692;DHT22;52411;52.716;6.696;2022-11-20T03:59:29;-1.20;99.90
65692;DHT22;52411;52.716;6.696;2022-11-20T04:01:55;-1.20;99.90
65692;DHT22;52411;52.716;6.696;2022-11-20T04:04:20;-1.30;99.90
65692;DHT22;52411;52.716;6.696;2022-11-20T04:06:46;-1.30;99.90
65692;DHT22;52411;52.716;6.696;2022-11-20T04:09:12;-1.20;99.90
65692;DHT22;52411;52.716;6.696;2022-11-20T04:11:39;-1.30;99.90
65692;DHT22;52411;52.716;6.696;2022-11-20T04:14:14;-1.30;99.90
65692;DHT22;52411;52.716;6.696;2022-11-20T04:16:40;-1.30;99.90
65692;DHT22;52411;52.716;6.696;2022-11-20T04:19:10;-1.20;99.90
65692;DHT22;52411;52.716;6.696;2022-11-20T04:21:37;-1.30;99.90
65692;DHT22;52411;52.716;6.696;2022-11-20T04:24:02;-1.30;99.90
65692;DHT22;52411;52.716;6.696;2022-11-20T04:26:29;-1.20;99.90
65692;DHT22;52411;52.716;6.696;2022-11-20T04:28:55;-1.20;99.90
65692;DHT22;52411;52.716;6.696;2022-11-20T04:31:24;-1.20;99.90
65692;DHT22;52411;52.716;6.696;2022-11-20T04:33:50;-1.20;99.90
65692;DHT22;52411;52.716;6.696;2022-11-20T04:36:22;-1.20;99.90
65692;DHT22;52411;52.716;6.696;2022-11-20T04:38:55;-1.20;99.90
65692;DHT22;52411;52.716;6.696;2022-11-20T04:41:22;-1.30;99.90
65692;DHT22;52411;52.716;6.696;2022-11-20T04:43:53;-1.20;99.90
65692;DHT22;52411;52.716;6.696;2022-11-20T04:46:20;-1.20;99.90
65692;DHT22;52411;52.716;6.696;2022-11-20T04:48:46;-1.20;99.90
65692;DHT22;52411;52.716;6.696;2022-11-20T04:51:13;-1.20;99.90
65692;DHT22;52411;52.716;6.696;2022-11-20T04:53:38;-1.10;99.90
65692;DHT22;52411;52.716;6.696;2022-11-20T04:56:06;-1.10;99.90
65692;DHT22;52411;52.716;6.696;2022-11-20T04:58:32;-1.10;99.90
65692;DHT22;52411;52.716;6.696;2022-11-20T05:01:10;-1.10;99.90
65692;DHT22;52411;52.716;6.696;2022-11-20T05:03:36;-1.10;99.90
65692;DHT22;52411;52.716;6.696;2022-11-20T05:06:03;-1.10;99.90
65692;DHT22;52411;52.716;6.696;2022-11-20T05:08:29;-1.10;99.90
65692;DHT22;52411;52.716;6.696;2022-11-20T05:11:00;-1.10;99.90
65692;DHT22;52411;52.716;6.696;2022-11-20T05:13:27;-1.10;99.90
65692;DHT22;52411;52.716;6.696;2022-11-20T05:15:52;-1.10;99.90
65692;DHT22;52411;52.716;6.696;2022-11-20T05:18:18;-1.10;99.90
65692;DHT22;52411;52.716;6.696;2022-11-20T05:20:43;-1.10;99.90
65692;DHT22;52411;52.716;6.696;2022-11-20T05:23:09;-1.00;99.90
65692;DHT22;52411;52.716;6.696;2022-11-20T05:25:34;-1.00;99.90
65692;DHT22;52411;52.716;6.696;2022-11-20T05:28:00;-1.00;99.90
65692;DHT22;52411;52.716;6.696;2022-11-20T05:30:26;-1.00;99.90
65692;DHT22;52411;52.716;6.696;2022-11-20T05:32:51;-0.90;99.90
65692;DHT22;52411;52.716;6.696;2022-11-20T05:35:17;-0.90;99.90
65692;DHT22;52411;52.716;6.696;2022-11-20T05:37:42;-0.90;99.90
65692;DHT22;52411;52.716;6.696;2022-11-20T05:40:08;-0.90;99.90
65692;DHT22;52411;52.716;6.696;2022-11-20T05:42:34;-0.90;99.90
65692;DHT22;52411;52.716;6.696;2022-11-20T05:45:02;-0.90;99.90
65692;DHT22;52411;52.716;6.696;2022-11-20T05:47:32;-0.90;99.90
65692;DHT22;52411;52.716;6.696;2022-11-20T05:49:58;-0.80;99.90
65692;DHT22;52411;52.716;6.696;2022-11-20T05:52:23;-0.80;99.90
65692;DHT22;52411;52.716;6.696;2022-11-20T05:54:49;-0.80;99.90
65692;DHT22;52411;52.716;6.696;2022-11-20T05:57:15;-0.80;99.90
65692;DHT22;52411;52.716;6.696;2022-11-20T05:59:41;-0.90;99.90
65692;DHT22;52411;52.716;6.696;2022-11-20T06:02:06;-0.90;99.90
65692;DHT22;52411;52.716;6.696;2022-11-20T06:04:32;-0.90;99.90
65692;DHT22;52411;52.716;6.696;2022-11-20T06:06:57;-0.90;99.90
65692;DHT22;52411;52.716;6.696;2022-11-20T06:09:23;-0.90;99.90
65692;DHT22;52411;52.716;6.696;2022-11-20T06:11:48;-0.90;99.90
65692;DHT22;52411;52.716;6.696;2022-11-20T06:14:14;-0.90;99.90
65692;DHT22;52411;52.716;6.696;2022-11-20T06:16:39;-0.90;99.90
65692;DHT22;52411;52.716;6.696;2022-11-20T06:19:05;-0.90;99.90
65692;DHT22;52411;52.716;6.696;2022-11-20T06:21:30;-0.80;99.90
65692;DHT22;52411;52.716;6.696;2022-11-20T06:23:56;-0.80;99.90
65692;DHT22;52411;52.716;6.696;2022-11-20T06:26:24;-0.80;99.90
65692;DHT22;52411;52.716;6.696;2022-11-20T06:28:51;-0.80;99.90
65692;DHT22;52411;52.716;6.696;2022-11-20T06:31:18;-0.80;99.90
65692;DHT22;52411;52.716;6.696;2022-11-20T06:33:45;-0.80;99.90
65692;DHT22;52411;52.716;6.696;2022-11-20T06:36:12;-0.80;99.90
65692;DHT22;52411;52.716;6.696;2022-11-20T06:38:39;-0.80;99.90
65692;DHT22;52411;52.716;6.696;2022-11-20T06:41:06;-0.80;99.90
65692;DHT22;52411;52.716;6.696;2022-11-20T06:43:31;-0.80;99.90
65692;DHT22;52411;52.716;6.696;2022-11-20T06:45:58;-0.70;99.90
65692;DHT22;52411;52.716;6.696;2022-11-20T06:48:26;-0.70;99.90
65692;DHT22;52411;52.716;6.696;2022-11-20T06:50:52;-0.70;99.90
65692;DHT22;52411;52.716;6.696;2022-11-20T06:53:17;-0.70;99.90
65692;DHT22;52411;52.716;6.696;2022-11-20T06:55:44;-0.70;99.90
65692;DHT22;52411;52.716;6.696;2022-11-20T06:58:10;-0.70;99.90
65692;DHT22;52411;52.716;6.696;2022-11-20T07:00:36;-0.80;99.90
65692;DHT22;52411;52.716;6.696;2022-11-20T07:03:06;-0.70;99.90
65692;DHT22;52411;52.716;6.696;2022-11-20T07:05:32;-0.70;99.90
65692;DHT22;52411;52.716;6.696;2022-11-20T07:07:58;-0.70;99.90
65692;DHT22;52411;52.716;6.696;2022-11-20T07:10:24;-0.70;99.90
65692;DHT22;52411;52.716;6.696;2022-11-20T07:12:51;-0.70;99.90
65692;DHT22;52411;52.716;6.696;2022-11-20T07:15:18;-0.70;99.90
65692;DHT22;52411;52.716;6.696;2022-11-20T07:17:43;-0.60;99.90
65692;DHT22;52411;52.716;6.696;2022-11-20T07:20:09;-0.60;99.90
65692;DHT22;52411;52.716;6.696;2022-11-20T07:22:35;-0.60;99.90
65692;DHT22;52411;52.716;6.696;2022-11-20T07:25:01;-0.60;99.90
65692;DHT22;52411;52.716;6.696;2022-11-20T07:27:27;-0.60;99.90
65692;DHT22;52411;52.716;6.696;2022-11-20T07:29:53;-0.60;99.90
65692;DHT22;52411;52.716;6.696;2022-11-20T07:32:18;-0.60;99.90
65692;DHT22;52411;52.716;6.696;2022-11-20T07:34:44;-0.50;99.90
65692;DHT22;52411;52.716;6.696;2022-11-20T07:37:09;-0.50;99.90
65692;DHT22;52411;52.716;6.696;2022-11-20T07:39:35;-0.50;99.90
65692;DHT22;52411;52.716;6.696;2022-11-20T07:42:01;-0.50;99.90
65692;DHT22;52411;52.716;6.696;2022-11-20T07:44:26;-0.50;99.90
65692;DHT22;52411;52.716;6.696;2022-11-20T07:46:52;-0.50;99.90
65692;DHT22;52411;52.716;6.696;2022-11-20T07:49:17;-0.40;99.90
65692;DHT22;52411;52.716;6.696;2022-11-20T07:51:43;-0.40;99.90
65692;DHT22;52411;52.716;6.696;2022-11-20T07:54:08;-0.40;99.90
65692;DHT22;52411;52.716;6.696;2022-11-20T07:56:34;-0.40;99.90
65692;DHT22;52411;52.716;6.696;2022-11-20T07:58:59;-0.40;99.90
65692;DHT22;52411;52.716;6.696;2022-11-20T08:01:25;-0.40;99.90
65692;DHT22;52411;52.716;6.696;2022-11-20T08:03:50;-0.40;99.90
65692;DHT22;52411;52.716;6.696;2022-11-20T08:06:16;-0.40;99.90
65692;DHT22;52411;52.716;6.696;2022-11-20T08:08:42;-0.40;99.90
65692;DHT22;52411;52.716;6.696;2022-11-20T08:11:08;-0.40;99.90
65692;DHT22;52411;52.716;6.696;2022-11-20T08:13:52;-0.40;99.90
65692;DHT22;52411;52.716;6.696;2022-11-20T08:16:36;-0.40;99.90
65692;DHT22;52411;52.716;6.696;2022-11-20T08:19:02;-0.30;99.90
65692;DHT22;52411;52.716;6.696;2022-11-20T08:21:27;-0.20;99.90
65692;DHT22;52411;52.716;6.696;2022-11-20T08:23:53;-0.20;99.90
65692;DHT22;52411;52.716;6.696;2022-11-20T08:26:18;-0.20;99.90
65692;DHT22;52411;52.716;6.696;2022-11-20T08:28:45;-0.20;99.90
65692;DHT22;52411;52.716;6.696;2022-11-20T08:31:12;-0.20;99.90
65692;DHT22;52411;52.716;6.696;2022-11-20T08:33:37;-0.20;99.90
65692;DHT22;52411;52.716;6.696;2022-11-20T08:36:03;-0.20;99.90
65692;DHT22;52411;52.716;6.696;2022-11-20T08:38:30;-0.20;99.90
65692;DHT22;52411;52.716;6.696;2022-11-20T08:41:00;-0.20;99.90
65692;DHT22;52411;52.716;6.696;2022-11-20T08:43:45;-0.20;99.90
65692;DHT22;52411;52.716;6.696;2022-11-20T08:46:10;-0.20;99.90
65692;DHT22;52411;52.716;6.696;2022-11-20T08:48:36;-0.20;99.90
65692;DHT22;52411;52.716;6.696;2022-11-20T08:51:01;-0.10;99.90
65692;DHT22;52411;52.716;6.696;2022-11-20T08:53:27;0.00;99.90
65692;DHT22;52411;52.716;6.696;2022-11-20T08:55:53;0.00;99.90
65692;DHT22;52411;52.716;6.696;2022-11-20T08:58:19;0.00;99.90
65692;DHT22;52411;52.716;6.696;2022-11-20T09:00:44;0.10;99.90
65692;DHT22;52411;52.716;6.696;2022-11-20T09:03:10;0.10;99.90
65692;DHT22;52411;52.716;6.696;2022-11-20T09:05:35;0.00;99.90
65692;DHT22;52411;52.716;6.696;2022-11-20T09:08:01;0.00;99.90
65692;DHT22;52411;52.716;6.696;2022-11-20T09:10:27;0.00;99.90
65692;DHT22;52411;52.716;6.696;2022-11-20T09:12:53;0.00;99.90
65692;DHT22;52411;52.716;6.696;2022-11-20T09:15:20;0.10;99.90
65692;DHT22;52411;52.716;6.696;2022-11-20T09:17:58;0.20;99.90
65692;DHT22;52411;52.716;6.696;2022-11-20T09:20:25;0.20;99.90
65692;DHT22;52411;52.716;6.696;2022-11-20T09:22:50;0.20;99.90
65692;DHT22;52411;52.716;6.696;2022-11-20T09:25:17;0.30;99.90
65692;DHT22;52411;52.716;6.696;2022-11-20T09:27:42;0.20;99.90
65692;DHT22;52411;52.716;6.696;2022-11-20T09:30:12;0.30;99.90
65692;DHT22;52411;52.716;6.696;2022-11-20T09:32:41;0.30;99.90
65692;DHT22;52411;52.716;6.696;2022-11-20T09:35:07;0.40;99.90
65692;DHT22;52411;52.716;6.696;2022-11-20T09:37:33;0.40;99.90
65692;DHT22;52411;52.716;6.696;2022-11-20T09:39:59;0.50;99.90
65692;DHT22;52411;52.716;6.696;2022-11-20T09:45:09;0.50;99.90
65692;DHT22;52411;52.716;6.696;2022-11-20T09:50:45;0.60;99.90
65692;DHT22;52411;52.716;6.696;2022-11-20T09:56:03;0.60;99.90
65692;DHT22;52411;52.716;6.696;2022-11-20T09:58:31;0.70;99.90
65692;DHT22;52411;52.716;6.696;2022-11-20T10:01:14;0.70;99.90
65692;DHT22;52411;52.716;6.696;2022-11-20T10:06:18;0.80;99.90
65692;DHT22;52411;52.716;6.696;2022-11-20T10:08:51;0.80;99.90
65692;DHT22;52411;52.716;6.696;2022-11-20T10:11:51;0.80;99.90
65692;DHT22;52411;52.716;6.696;2022-11-20T10:14:33;0.80;99.90
65692;DHT22;52411;52.716;6.696;2022-11-20T10:17:25;0.90;99.90
65692;DHT22;52411;52.716;6.696;2022-11-20T10:20:30;0.90;99.90
65692;DHT22;52411;52.716;6.696;2022-11-20T10:23:06;0.90;99.90
65692;DHT22;52411;52.716;6.696;2022-11-20T10:34:22;1.30;99.90
65692;DHT22;52411;52.716;6.696;2022-11-20T10:36:54;1.40;99.90
65692;DHT22;52411;52.716;6.696;2022-11-20T10:39:37;1.50;99.90
65692;DHT22;52411;52.716;6.696;2022-11-20T10:42:11;1.60;99.90
65692;DHT22;52411;52.716;6.696;2022-11-20T10:44:43;1.70;99.90
65692;DHT22;52411;52.716;6.696;2022-11-20T10:47:30;1.70;99.90
65692;DHT22;52411;52.716;6.696;2022-11-20T10:49:58;1.80;99.90
65692;DHT22;52411;52.716;6.696;2022-11-20T10:52:52;2.00;99.90
65692;DHT22;52411;52.716;6.696;2022-11-20T10:55:33;2.10;99.90
65692;DHT22;52411;52.716;6.696;2022-11-20T11:00:43;2.40;99.90
65692;DHT22;52411;52.716;6.696;2022-11-20T11:03:24;2.50;99.90
65692;DHT22;52411;52.716;6.696;2022-11-20T11:05:58;2.60;99.90
65692;DHT22;52411;52.716;6.696;2022-11-20T11:08:28;2.70;99.90
65692;DHT22;52411;52.716;6.696;2022-11-20T11:11:01;2.80;99.90
65692;DHT22;52411;52.716;6.696;2022-11-20T11:13:30;2.90;99.90
65692;DHT22;52411;52.716;6.696;2022-11-20T11:15:56;2.90;99.90
65692;DHT22;52411;52.716;6.696;2022-11-20T11:18:30;3.10;99.90
65692;DHT22;52411;52.716;6.696;2022-11-20T11:20:59;3.20;99.90
65692;DHT22;52411;52.716;6.696;2022-11-20T11:23:42;3.20;99.90
65692;DHT22;52411;52.716;6.696;2022-11-20T11:26:24;3.40;99.90
65692;DHT22;52411;52.716;6.696;2022-11-20T11:31:29;3.40;99.90
65692;DHT22;52411;52.716;6.696;2022-11-20T11:36:32;3.50;99.90
65692;DHT22;52411;52.716;6.696;2022-11-20T11:38:58;3.60;99.90
65692;DHT22;52411;52.716;6.696;2022-11-20T11:41:28;3.70;99.90
65692;DHT22;52411;52.716;6.696;2022-11-20T11:43:56;3.80;99.90
65692;DHT22;52411;52.716;6.696;2022-11-20T11:46:52;4.00;99.90
65692;DHT22;52411;52.716;6.696;2022-11-20T11:49:19;4.00;99.90
65692;DHT22;52411;52.716;6.696;2022-11-20T11:52:14;4.10;99.90
65692;DHT22;52411;52.716;6.696;2022-11-20T11:54:56;4.10;99.90
65692;DHT22;52411;52.716;6.696;2022-11-20T12:00:04;4.00;99.90
65692;DHT22;52411;52.716;6.696;2022-11-20T12:11:23;3.90;99.90
65692;DHT22;52411;52.716;6.696;2022-11-20T12:14:17;3.70;99.90
65692;DHT22;52411;52.716;6.696;2022-11-20T12:16:45;3.70;99.90
65692;DHT22;52411;52.716;6.696;2022-11-20T12:19:13;3.60;99.90
65692;DHT22;52411;52.716;6.696;2022-11-20T12:25:11;3.50;99.90
65692;DHT22;52411;52.716;6.696;2022-11-20T12:31:36;3.40;99.90
65692;DHT22;52411;52.716;6.696;2022-11-20T12:36:34;3.60;99.90
65692;DHT22;52411;52.716;6.696;2022-11-20T12:48:03;3.80;99.90
65692;DHT22;52411;52.716;6.696;2022-11-20T12:51:04;3.80;99.90
65692;DHT22;52411;52.716;6.696;2022-11-20T12:57:07;3.80;99.90
65692;DHT22;52411;52.716;6.696;2022-11-20T12:59:50;3.70;99.90
65692;DHT22;52411;52.716;6.696;2022-11-20T13:02:53;3.70;99.90
65692;DHT22;52411;52.716;6.696;2022-11-20T13:05:52;3.60;99.90
65692;DHT22;52411;52.716;6.696;2022-11-20T13:08:23;3.50;99.90
65692;DHT22;52411;52.716;6.696;2022-11-20T13:11:47;3.40;99.90
65692;DHT22;52411;52.716;6.696;2022-11-20T13:14:11;3.40;99.90
65692;DHT22;52411;52.716;6.696;2022-11-20T13:16:58;3.40;99.90
65692;DHT22;52411;52.716;6.696;2022-11-20T13:19:26;3.40;99.90
65692;DHT22;52411;52.716;6.696;2022-11-20T13:21:53;3.40;99.90
65692;DHT22;52411;52.716;6.696;2022-11-20T13:26:45;3.50;99.90
65692;DHT22;52411;52.716;6.696;2022-11-20T13:29:16;3.60;99.90
65692;DHT22;52411;52.716;6.696;2022-11-20T13:31:47;3.70;99.90
65692;DHT22;52411;52.716;6.696;2022-11-20T13:34:24;3.70;99.90
65692;DHT22;52411;52.716;6.696;2022-11-20T13:36:53;3.70;99.90
65692;DHT22;52411;52.716;6.696;2022-11-20T13:39:34;3.60;99.90
65692;DHT22;52411;52.716;6.696;2022-11-20T13:44:42;3.50;99.90
65692;DHT22;52411;52.716;6.696;2022-11-20T13:47:24;3.50;99.90
65692;DHT22;52411;52.716;6.696;2022-11-20T13:49:55;3.40;99.90
65692;DHT22;52411;52.716;6.696;2022-11-20T13:52:32;3.50;99.90
65692;DHT22;52411;52.716;6.696;2022-11-20T14:00:24;3.40;99.90
65692;DHT22;52411;52.716;6.696;2022-11-20T14:05:35;3.40;99.90
65692;DHT22;52411;52.716;6.696;2022-11-20T14:08:03;3.30;99.90
65692;DHT22;52411;52.716;6.696;2022-11-20T14:10:30;3.30;99.90
65692;DHT22;52411;52.716;6.696;2022-11-20T14:12:56;3.30;99.90
65692;DHT22;52411;52.716;6.696;2022-11-20T14:15:28;3.20;99.90
65692;DHT22;52411;52.716;6.696;2022-11-20T14:17:53;3.20;99.90
65692;DHT22;52411;52.716;6.696;2022-11-20T14:20:19;3.20;99.90
65692;DHT22;52411;52.716;6.696;2022-11-20T14:22:52;3.10;99.90
65692;DHT22;52411;52.716;6.696;2022-11-20T14:25:23;3.10;99.90
65692;DHT22;52411;52.716;6.696;2022-11-20T14:28:00;3.00;99.90
65692;DHT22;52411;52.716;6.696;2022-11-20T14:30:29;3.00;99.90
65692;DHT22;52411;52.716;6.696;2022-11-20T14:33:03;3.00;99.90
65692;DHT22;52411;52.716;6.696;2022-11-20T14:35:37;2.90;99.90
65692;DHT22;52411;52.716;6.696;2022-11-20T14:38:12;2.80;99.90
65692;DHT22;52411;52.716;6.696;2022-11-20T14:40:38;2.80;99.90
65692;DHT22;52411;52.716;6.696;2022-11-20T14:43:26;2.70;99.90
65692;DHT22;52411;52.716;6.696;2022-11-20T14:45:57;2.70;99.90
65692;DHT22;52411;52.716;6.696;2022-11-20T14:48:32;2.60;99.90
65692;DHT22;52411;52.716;6.696;2022-11-20T14:50:59;2.60;99.90
65692;DHT22;52411;52.716;6.696;2022-11-20T14:53:25;2.60;99.90
65692;DHT22;52411;52.716;6.696;2022-11-20T14:56:01;2.60;99.90
65692;DHT22;52411;52.716;6.696;2022-11-20T14:58:30;2.60;99.90
65692;DHT22;52411;52.716;6.696;2022-11-20T15:01:07;2.50;99.90
65692;DHT22;52411;52.716;6.696;2022-11-20T15:03:40;2.50;99.90
65692;DHT22;52411;52.716;6.696;2022-11-20T15:06:09;2.40;99.90
65692;DHT22;52411;52.716;6.696;2022-11-20T15:08:35;2.40;99.90
65692;DHT22;52411;52.716;6.696;2022-11-20T15:11:01;2.40;99.90
65692;DHT22;52411;52.716;6.696;2022-11-20T15:13:33;2.30;99.90
65692;DHT22;52411;52.716;6.696;2022-11-20T15:16:03;2.30;99.90
65692;DHT22;52411;52.716;6.696;2022-11-20T15:18:31;2.30;99.90
65692;DHT22;52411;52.716;6.696;2022-11-20T15:21:00;2.30;99.90
65692;DHT22;52411;52.716;6.696;2022-11-20T15:23:26;2.30;99.90
65692;DHT22;52411;52.716;6.696;2022-11-20T15:25:52;2.30;99.90
65692;DHT22;52411;52.716;6.696;2022-11-20T15:28:21;2.30;99.90
65692;DHT22;52411;52.716;6.696;2022-11-20T15:30:49;2.20;99.90
65692;DHT22;52411;52.716;6.696;2022-11-20T15:33:16;2.20;99.90
65692;DHT22;52411;52.716;6.696;2022-11-20T15:35:41;2.20;99.90
65692;DHT22;52411;52.716;6.696;2022-11-20T15:38:07;2.20;99.90
65692;DHT22;52411;52.716;6.696;2022-11-20T15:40:33;2.20;99.90
65692;DHT22;52411;52.716;6.696;2022-11-20T15:42:58;2.20;99.90
65692;DHT22;52411;52.716;6.696;2022-11-20T15:45:36;2.20;99.90
65692;DHT22;52411;52.716;6.696;2022-11-20T15:48:03;2.20;99.90
65692;DHT22;52411;52.716;6.696;2022-11-20T15:50:45;2.20;99.90
65692;DHT22;52411;52.716;6.696;2022-11-20T15:53:12;2.20;99.90
65692;DHT22;52411;52.716;6.696;2022-11-20T15:55:37;2.20;99.90
65692;DHT22;52411;52.716;6.696;2022-11-20T15:58:03;2.20;99.90
65692;DHT22;52411;52.716;6.696;2022-11-20T16:00:28;2.20;99.90
65692;DHT22;52411;52.716;6.696;2022-11-20T16:02:54;2.20;99.90
65692;DHT22;52411;52.716;6.696;2022-11-20T16:05:19;2.20;99.90
65692;DHT22;52411;52.716;6.696;2022-11-20T16:07:45;2.20;99.90
65692;DHT22;52411;52.716;6.696;2022-11-20T16:10:10;2.20;99.90
65692;DHT22;52411;52.716;6.696;2022-11-20T16:12:36;2.20;99.90
65692;DHT22;52411;52.716;6.696;2022-11-20T16:15:20;2.30;99.90
65692;DHT22;52411;52.716;6.696;2022-11-20T16:18:04;2.30;99.90
65692;DHT22;52411;52.716;6.696;2022-11-20T16:20:30;2.30;99.90
65692;DHT22;52411;52.716;6.696;2022-11-20T16:22:55;2.30;99.90
65692;DHT22;52411;52.716;6.696;2022-11-20T16:25:21;2.30;99.90
65692;DHT22;52411;52.716;6.696;2022-11-20T16:27:46;2.30;99.90
65692;DHT22;52411;52.716;6.696;2022-11-20T16:30:12;2.30;99.90
65692;DHT22;52411;52.716;6.696;2022-11-20T16:32:38;2.40;99.90
65692;DHT22;52411;52.716;6.696;2022-11-20T16:35:04;2.40;99.90
65692;DHT22;52411;52.716;6.696;2022-11-20T16:37:30;2.30;99.90
65692;DHT22;52411;52.716;6.696;2022-11-20T16:39:55;2.30;99.90
65692;DHT22;52411;52.716;6.696;2022-11-20T16:42:21;2.40;99.90
65692;DHT22;52411;52.716;6.696;2022-11-20T16:44:47;2.30;99.90
65692;DHT22;52411;52.716;6.696;2022-11-20T16:47:12;2.30;99.90
65692;DHT22;52411;52.716;6.696;2022-11-20T16:49:38;2.30;99.90
65692;DHT22;52411;52.716;6.696;2022-11-20T16:52:03;2.30;99.90
65692;DHT22;52411;52.716;6.696;2022-11-20T16:54:29;2.30;99.90
65692;DHT22;52411;52.716;6.696;2022-11-20T16:56:54;2.30;99.90
65692;DHT22;52411;52.716;6.696;2022-11-20T16:59:20;2.30;99.90
65692;DHT22;52411;52.716;6.696;2022-11-20T17:01:45;2.30;99.90
65692;DHT22;52411;52.716;6.696;2022-11-20T17:04:11;2.30;99.90
65692;DHT22;52411;52.716;6.696;2022-11-20T17:06:39;2.30;99.90
65692;DHT22;52411;52.716;6.696;2022-11-20T17:09:05;2.30;99.90
65692;DHT22;52411;52.716;6.696;2022-11-20T17:11:33;2.20;99.90
65692;DHT22;52411;52.716;6.696;2022-11-20T17:13:59;2.30;99.90
65692;DHT22;52411;52.716;6.696;2022-11-20T17:16:25;2.20;99.90